Time;durP1;ratioP1;P1;durP2;ratioP2;P2;SDS_P1;SDS_P2;PMS_P1;PMS_P2;Temp;Humidity;BMP_temperature;BMP_pressure;BME280_temperature;BME280_humidity;BME280_pressure;Samples;Min_cycle;Max_cycle;Signal;HPM_P1;HPM_P2
2023/09/01 00:01:00;;;;;;;5.20;3.47;;;18.60;78.80;;;;;;5107216;28;20053;-70
2023/09/01 00:05:58;;;;;;;5.32;4.30;;;18.60;78.90;;;;;;5136337;28;20031;-70
2023/09/01 00:08:31;;;;;;;4.32;2.97;;;18.50;78.90;;;;;;5136020;27;20019;-70
2023/09/01 00:11:00;;;;;;;3.30;3.00;;;18.50;78.90;;;;;;5136397;27;20438;-70
2023/09/01 00:13:26;;;;;;;4.35;3.22;;;18.40;79.00;;;;;;5136215;27;20064;-70
2023/09/01 00:16:02;;;;;;;4.68;4.18;;;18.40;79.10;;;;;;5136034;27;20023;-69
2023/09/01 00:18:30;;;;;;;6.07;4.57;;;18.40;79.30;;;;;;5135973;27;20034;-71
2023/09/01 00:21:05;;;;;;;5.47;4.90;;;18.40;79.30;;;;;;5135024;28;20041;-71
2023/09/01 00:23:32;;;;;;;4.60;4.20;;;18.40;79.20;;;;;;5135896;27;20070;-71
2023/09/01 00:25:59;;;;;;;4.07;3.55;;;18.40;79.40;;;;;;5135832;27;20019;-70
2023/09/01 00:30:57;;;;;;;3.55;3.22;;;18.40;79.40;;;;;;5139471;27;20341;-69
2023/09/01 00:33:32;;;;;;;4.00;3.60;;;18.40;79.50;;;;;;5139206;27;20491;-71
2023/09/01 00:36:03;;;;;;;5.00;3.95;;;18.40;79.40;;;;;;5139810;27;20519;-68
2023/09/01 00:38:31;;;;;;;4.72;4.25;;;18.40;79.40;;;;;;5138791;27;20027;-70
2023/09/01 00:40:57;;;;;;;4.38;3.92;;;18.40;79.50;;;;;;5139945;27;20057;-69
2023/09/01 00:43:25;;;;;;;4.25;3.50;;;18.40;79.50;;;;;;5139606;27;20023;-69
2023/09/01 00:48:17;;;;;;;3.85;3.55;;;18.30;79.70;;;;;;5140362;27;20019;-69
2023/09/01 00:50:46;;;;;;;4.70;3.80;;;18.30;79.60;;;;;;5139578;27;20039;-70
2023/09/01 00:53:12;;;;;;;4.93;3.78;;;18.30;79.60;;;;;;5139472;27;20022;-71
2023/09/01 00:55:39;;;;;;;3.90;3.50;;;18.20;79.70;;;;;;5139412;27;20453;-69
2023/09/01 00:58:07;;;;;;;4.50;4.00;;;18.20;79.70;;;;;;5139398;27;20046;-71
2023/09/01 01:00:33;;;;;;;4.70;3.67;;;18.20;79.70;;;;;;5139669;27;20099;-71
2023/09/01 01:05:50;;;;;;;4.13;3.72;;;18.20;79.60;;;;;;5139733;27;20441;-70
2023/09/01 01:08:57;;;;;;;4.15;3.75;;;18.20;79.80;;;;;;5138802;27;20061;-71
2023/09/01 01:11:46;;;;;;;5.80;4.00;;;18.20;79.90;;;;;;5139695;27;20029;-71
2023/09/01 01:14:28;;;;;;;5.70;4.07;;;18.20;79.90;;;;;;5139000;27;20069;-70
2023/09/01 01:16:56;;;;;;;3.90;3.50;;;18.10;80.00;;;;;;5139678;27;20043;-71
2023/09/01 01:19:32;;;;;;;5.60;3.83;;;18.20;80.00;;;;;;5138126;27;20023;-71
2023/09/01 01:22:00;;;;;;;4.97;4.47;;;18.10;80.00;;;;;;5139538;27;20023;-68
2023/09/01 01:24:27;;;;;;;5.70;4.90;;;18.10;80.10;;;;;;5138805;27;20098;-70
2023/09/01 01:26:54;;;;;;;5.60;4.47;;;18.10;80.20;;;;;;5138891;27;20020;-71
2023/09/01 01:29:21;;;;;;;4.32;3.92;;;18.10;80.20;;;;;;5139103;27;20023;-70
2023/09/01 01:31:47;;;;;;;5.00;4.50;;;18.10;80.20;;;;;;5138775;27;20051;-70
2023/09/01 01:34:38;;;;;;;6.88;4.90;;;18.10;80.10;;;;;;5138126;27;20508;-69
2023/09/01 01:37:30;;;;;;;6.28;4.00;;;18.10;80.00;;;;;;5139018;27;20019;-70
2023/09/01 01:40:05;;;;;;;5.00;4.50;;;18.10;79.90;;;;;;5138581;27;20417;-71
2023/09/01 01:42:54;;;;;;;4.97;3.92;;;18.00;79.70;;;;;;5137435;27;20062;-71
2023/09/01 01:45:23;;;;;;;7.05;4.60;;;18.00;79.80;;;;;;5138994;27;20019;-71
2023/09/01 01:47:52;;;;;;;5.35;4.45;;;17.90;79.80;;;;;;5138477;27;20019;-71
2023/09/01 01:50:18;;;;;;;5.50;3.90;;;17.90;80.10;;;;;;5138402;27;20069;-71
2023/09/01 01:52:45;;;;;;;7.38;5.30;;;17.90;80.10;;;;;;5138536;27;20027;-71
2023/09/01 01:55:11;;;;;;;5.32;4.10;;;17.90;80.20;;;;;;5138340;27;20027;-68
2023/09/01 01:57:37;;;;;;;5.15;4.65;;;17.90;80.30;;;;;;5138315;27;20027;-70
2023/09/01 02:00:11;;;;;;;4.93;3.63;;;17.90;80.30;;;;;;5138254;27;20023;-70
2023/09/01 02:02:40;;;;;;;5.35;4.03;;;17.90;80.40;;;;;;5137982;27;20035;-71
2023/09/01 02:05:06;;;;;;;7.18;4.07;;;17.90;80.30;;;;;;5137066;27;20040;-71
2023/09/01 02:07:42;;;;;;;6.78;4.68;;;17.80;80.20;;;;;;5138343;27;20436;-70
2023/09/01 02:10:09;;;;;;;5.93;4.47;;;17.80;80.20;;;;;;5138301;27;20090;-69
2023/09/01 02:12:35;;;;;;;5.40;4.53;;;17.80;80.30;;;;;;5137932;27;20034;-71
2023/09/01 02:15:08;;;;;;;7.00;4.57;;;17.80;80.50;;;;;;5138445;27;20069;-71
2023/09/01 02:17:36;;;;;;;5.80;5.20;;;17.80;80.60;;;;;;5139009;27;20327;-71
2023/09/01 02:20:18;;;;;;;5.20;4.70;;;17.70;80.50;;;;;;5137850;27;20015;-70
2023/09/01 02:22:45;;;;;;;4.78;4.30;;;17.70;80.40;;;;;;5138202;27;20034;-69
2023/09/01 02:27:41;;;;;;;4.63;4.00;;;17.70;80.40;;;;;;5138513;27;20030;-70
2023/09/01 02:32:53;;;;;;;5.85;4.65;;;17.70;80.40;;;;;;5094867;28;20047;-71
2023/09/01 02:35:19;;;;;;;6.07;5.25;;;17.60;80.50;;;;;;5095626;28;20040;-71
2023/09/01 02:37:52;;;;;;;5.43;4.82;;;17.60;80.70;;;;;;5095300;28;20075;-71
2023/09/01 02:40:24;;;;;;;5.17;4.33;;;17.60;80.70;;;;;;5095142;28;20166;-71
2023/09/01 02:42:56;;;;;;;4.47;4.07;;;17.60;80.80;;;;;;5094687;28;20122;-70
2023/09/01 02:47:47;;;;;;;4.90;4.40;;;17.60;80.90;;;;;;5095357;28;20505;-71
2023/09/01 02:50:13;;;;;;;4.38;3.40;;;17.60;80.90;;;;;;5095405;28;20392;-71
2023/09/01 02:52:42;;;;;;;4.20;3.80;;;17.60;80.70;;;;;;5094339;28;20083;-71
2023/09/01 02:55:09;;;;;;;5.88;5.22;;;17.60;80.70;;;;;;5094510;28;20034;-69
2023/09/01 02:57:36;;;;;;;6.22;4.43;;;17.60;80.80;;;;;;5094447;28;20474;-70
2023/09/01 03:00:14;;;;;;;5.72;4.53;;;17.50;80.90;;;;;;5094920;28;20032;-70
2023/09/01 03:02:42;;;;;;;6.32;4.68;;;17.50;80.90;;;;;;5094975;28;20119;-70
2023/09/01 03:05:12;;;;;;;6.78;5.50;;;17.50;80.80;;;;;;5137095;27;20055;-70
2023/09/01 03:07:40;;;;;;;6.88;6.00;;;17.50;80.80;;;;;;5137454;27;20027;-70
2023/09/01 03:10:07;;;;;;;6.82;5.22;;;17.50;80.90;;;;;;5136797;27;20051;-71
2023/09/01 03:12:38;;;;;;;7.35;4.93;;;17.40;80.80;;;;;;5136791;27;20039;-70
2023/09/01 03:15:09;;;;;;;7.35;4.80;;;17.40;80.90;;;;;;5137051;27;20019;-70
2023/09/01 03:17:42;;;;;;;6.22;4.75;;;17.40;80.90;;;;;;5136680;27;20058;-71
2023/09/01 03:20:12;;;;;;;5.60;4.60;;;17.40;81.00;;;;;;5137262;27;20015;-70
2023/09/01 03:22:46;;;;;;;5.38;4.53;;;17.40;81.10;;;;;;5136828;27;20120;-71
2023/09/01 03:25:12;;;;;;;5.28;4.43;;;17.40;81.30;;;;;;5136533;27;20459;-70
2023/09/01 03:27:43;;;;;;;7.13;4.47;;;17.40;81.30;;;;;;5136598;27;20068;-70
2023/09/01 03:30:13;;;;;;;5.80;3.88;;;17.50;81.30;;;;;;5136875;27;20016;-70
2023/09/01 03:35:10;;;;;;;5.93;4.10;;;17.60;81.40;;;;;;5137243;27;20321;-70
2023/09/01 03:37:37;;;;;;;4.35;3.95;;;17.70;81.30;;;;;;5136384;27;20046;-69
2023/09/01 03:40:08;;;;;;;7.05;5.20;;;17.70;81.40;;;;;;5136948;27;20023;-71
2023/09/01 03:42:35;;;;;;;6.88;5.28;;;17.80;81.50;;;;;;5136499;27;20038;-71
2023/09/01 03:45:02;;;;;;;5.80;4.93;;;17.90;81.40;;;;;;5136338;27;20023;-71
2023/09/01 03:47:28;;;;;;;5.95;5.05;;;17.90;81.20;;;;;;5136328;27;20390;-69
2023/09/01 03:49:55;;;;;;;5.43;4.50;;;17.90;81.10;;;;;;5136302;27;20356;-70
2023/09/01 03:52:21;;;;;;;4.50;4.10;;;17.90;81.10;;;;;;5136130;27;20015;-71
2023/09/01 03:54:51;;;;;;;6.25;4.40;;;17.90;81.10;;;;;;5136201;27;20035;-70
2023/09/01 03:57:20;;;;;;;5.85;4.30;;;17.80;81.00;;;;;;5136422;27;20034;-70
2023/09/01 03:59:49;;;;;;;5.30;4.80;;;17.90;81.20;;;;;;5136730;27;20080;-71
2023/09/01 04:02:15;;;;;;;5.07;3.92;;;17.90;81.20;;;;;;5135983;27;20027;-70
2023/09/01 04:04:42;;;;;;;4.88;4.38;;;17.90;81.20;;;;;;5137907;27;20313;-70
2023/09/01 04:07:09;;;;;;;5.88;4.60;;;17.90;81.10;;;;;;5140912;27;20049;-69
2023/09/01 04:09:36;;;;;;;6.68;5.80;;;17.90;81.00;;;;;;5140173;27;20027;-70
2023/09/01 04:12:03;;;;;;;6.45;5.55;;;17.90;80.90;;;;;;5140857;27;20417;-70
2023/09/01 04:14:30;;;;;;;8.02;6.22;;;17.90;80.80;;;;;;5140198;27;20370;-71
2023/09/01 04:16:58;;;;;;;6.88;5.32;;;17.90;80.80;;;;;;5140225;27;20023;-71
2023/09/01 04:19:24;;;;;;;7.97;5.47;;;17.90;80.80;;;;;;5140743;27;20098;-71
2023/09/01 04:21:57;;;;;;;7.85;5.15;;;17.80;80.90;;;;;;5140663;27;20390;-71
2023/09/01 04:24:22;;;;;;;4.40;4.00;;;17.80;80.90;;;;;;5139999;27;20484;-71
2023/09/01 04:26:56;;;;;;;5.97;4.40;;;17.70;81.00;;;;;;5140027;27;20102;-71
2023/09/01 04:29:24;;;;;;;5.10;4.38;;;17.70;81.00;;;;;;5140496;27;20019;-70
2023/09/01 04:31:50;;;;;;;5.65;4.20;;;17.70;81.10;;;;;;5139958;27;20023;-69
2023/09/01 04:34:20;;;;;;;4.95;4.25;;;17.70;81.10;;;;;;5138701;27;20055;-70
2023/09/01 04:36:52;;;;;;;4.72;4.20;;;17.70;81.10;;;;;;5140086;27;20076;-71
2023/09/01 04:39:18;;;;;;;5.83;3.93;;;17.70;81.10;;;;;;5139824;27;20019;-69
2023/09/01 04:41:44;;;;;;;5.60;3.97;;;17.60;81.00;;;;;;5139766;27;20468;-70
2023/09/01 04:44:10;;;;;;;5.18;4.05;;;17.70;81.00;;;;;;5139620;27;20035;-72
2023/09/01 04:46:37;;;;;;;5.47;4.05;;;17.70;81.00;;;;;;5139520;27;20034;-71
2023/09/01 04:49:06;;;;;;;4.55;3.85;;;17.70;80.90;;;;;;5139506;27;20027;-70
2023/09/01 04:51:33;;;;;;;4.82;4.15;;;17.70;81.00;;;;;;5139522;27;20098;-70
2023/09/01 04:54:02;;;;;;;6.43;4.80;;;17.70;81.00;;;;;;5139458;27;20076;-68
2023/09/01 04:56:32;;;;;;;6.65;4.43;;;17.70;80.90;;;;;;5139471;27;20015;-68
2023/09/01 04:59:01;;;;;;;8.05;4.60;;;17.70;80.90;;;;;;5139566;27;20542;-68
2023/09/01 05:01:27;;;;;;;5.72;4.35;;;17.80;81.00;;;;;;5139254;27;20369;-70
2023/09/01 05:03:53;;;;;;;4.97;4.20;;;17.80;80.90;;;;;;5139358;27;20094;-69
2023/09/01 05:06:19;;;;;;;5.65;5.00;;;17.90;80.80;;;;;;5139190;27;20525;-73
2023/09/01 05:08:46;;;;;;;4.80;4.40;;;17.90;80.60;;;;;;5139745;27;20477;-74
2023/09/01 05:11:12;;;;;;;5.45;4.70;;;18.00;80.60;;;;;;5139697;27;20027;-72
2023/09/01 05:13:38;;;;;;;4.53;4.07;;;18.10;80.40;;;;;;5139020;27;20034;-73
2023/09/01 05:16:07;;;;;;;6.22;4.57;;;18.20;80.30;;;;;;5139286;27;20023;-74
2023/09/01 05:18:33;;;;;;;6.00;4.40;;;18.40;80.30;;;;;;5138907;27;20039;-74
2023/09/01 05:20:59;;;;;;;8.02;4.80;;;18.70;80.30;;;;;;5138902;27;20119;-74
2023/09/01 05:23:31;;;;;;;4.75;4.22;;;19.00;79.70;;;;;;5139363;27;20098;-72
2023/09/01 05:25:58;;;;;;;7.73;4.90;;;19.10;79.00;;;;;;5138762;27;20035;-75
2023/09/01 05:28:24;;;;;;;6.20;4.80;;;19.20;78.90;;;;;;5136665;27;20300;-74
2023/09/01 05:30:49;;;;;;;5.18;4.30;;;19.40;78.80;;;;;;5130878;27;20051;-68
2023/09/01 05:33:15;;;;;;;4.90;4.40;;;19.60;78.30;;;;;;5135216;27;20175;-67
2023/09/01 05:35:44;;;;;;;8.10;4.88;;;19.90;78.30;;;;;;5137834;27;20031;-67
2023/09/01 05:38:10;;;;;;;6.88;4.72;;;20.80;77.40;;;;;;5135181;27;20019;-67
2023/09/01 05:40:37;;;;;;;4.82;4.30;;;21.80;75.70;;;;;;5133851;27;20035;-67
2023/09/01 05:43:03;;;;;;;4.93;4.22;;;22.80;73.70;;;;;;5134650;27;20019;-66
2023/09/01 05:45:29;;;;;;;4.95;4.20;;;23.90;71.70;;;;;;5119226;27;20039;-67
2023/09/01 05:47:56;;;;;;;6.32;4.00;;;24.90;69.60;;;;;;5128868;27;20023;-67
2023/09/01 05:50:22;;;;;;;5.28;3.90;;;25.90;66.80;;;;;;5129137;27;20032;-67
2023/09/01 05:52:48;;;;;;;5.50;3.75;;;26.90;64.70;;;;;;5126729;27;20041;-67
2023/09/01 05:55:14;;;;;;;6.45;3.80;;;27.80;62.70;;;;;;5137454;27;20364;-67
2023/09/01 05:57:41;;;;;;;4.88;3.85;;;28.70;60.10;;;;;;5131819;27;20030;-73
2023/09/01 06:00:07;;;;;;;5.90;3.42;;;29.40;58.00;;;;;;5137463;27;20080;-70
2023/09/01 06:02:33;;;;;;;4.88;3.30;;;30.20;56.60;;;;;;5136756;27;20456;-73
2023/09/01 06:05:01;;;;;;;5.18;3.22;;;31.10;54.90;;;;;;5136945;27;20041;-70
2023/09/01 06:07:28;;;;;;;4.75;3.22;;;31.90;53.30;;;;;;5134823;27;20055;-71
2023/09/01 06:09:56;;;;;;;4.68;3.00;;;32.60;51.60;;;;;;5133746;27;20031;-69
2023/09/01 06:12:22;;;;;;;3.97;3.00;;;33.30;50.60;;;;;;5137475;27;20095;-71
2023/09/01 06:14:50;;;;;;;4.63;2.83;;;33.30;48.40;;;;;;5137591;27;20504;-72
2023/09/01 06:17:16;;;;;;;4.75;3.00;;;33.00;48.50;;;;;;5126485;27;20469;-69
2023/09/01 06:19:42;;;;;;;3.00;2.70;;;32.80;48.70;;;;;;5117081;28;20038;-71
2023/09/01 06:22:08;;;;;;;4.38;2.92;;;32.60;49.00;;;;;;5117936;27;20381;-71
2023/09/01 06:24:34;;;;;;;4.30;3.17;;;32.30;48.90;;;;;;5133222;27;20038;-68
2023/09/01 06:27:04;;;;;;;4.50;3.30;;;31.90;49.70;;;;;;5124661;27;20032;-69
2023/09/01 06:29:42;;;;;;;4.40;2.78;;;31.60;49.80;;;;;;5130354;27;20065;-68
2023/09/01 06:32:12;;;;;;;3.20;2.90;;;31.60;49.20;;;;;;5123030;27;20027;-65
2023/09/01 06:34:40;;;;;;;4.07;3.22;;;31.60;50.00;;;;;;5120626;27;20062;-66
2023/09/01 06:37:18;;;;;;;4.32;3.25;;;31.40;50.00;;;;;;5122567;27;20094;-67
2023/09/01 06:39:46;;;;;;;3.60;3.28;;;31.30;49.70;;;;;;5127476;27;20024;-64
2023/09/01 06:42:15;;;;;;;5.95;3.10;;;30.70;49.70;;;;;;5125080;27;20027;-67
2023/09/01 06:44:45;;;;;;;3.88;2.90;;;30.00;50.60;;;;;;5117299;27;20146;-66
2023/09/01 06:47:30;;;;;;;3.97;2.78;;;29.60;51.30;;;;;;5128663;27;20478;-68
2023/09/01 06:50:09;;;;;;;5.18;2.72;;;29.60;51.80;;;;;;5124590;27;20062;-67
2023/09/01 06:52:59;;;;;;;2.88;2.58;;;30.50;50.00;;;;;;5121649;27;20126;-67
2023/09/01 06:55:44;;;;;;;5.80;2.60;;;31.50;47.70;;;;;;5123592;27;20056;-64
2023/09/01 06:58:27;;;;;;;3.42;2.40;;;32.50;45.20;;;;;;5124729;27;20028;-65
2023/09/01 07:01:16;;;;;;;2.60;2.40;;;33.30;43.70;;;;;;5126680;27;20464;-67
2023/09/01 07:30:59;;;;;;;2.80;2.13;;;32.00;42.30;;;;;;5124768;27;20065;-66
2023/09/01 07:33:28;;;;;;;2.47;2.20;;;31.10;43.90;;;;;;5120427;27;20047;-66
2023/09/01 07:35:55;;;;;;;2.03;1.90;;;30.30;45.50;;;;;;5123724;27;20030;-68
2023/09/01 07:38:27;;;;;;;3.88;2.33;;;29.70;47.30;;;;;;5126064;27;20077;-69
2023/09/01 07:40:55;;;;;;;3.60;2.40;;;29.20;48.50;;;;;;5120050;27;20028;-68
2023/09/01 07:43:23;;;;;;;4.68;2.67;;;28.70;49.60;;;;;;5123776;27;20023;-67
2023/09/01 07:45:52;;;;;;;4.97;2.60;;;28.30;50.60;;;;;;5119453;28;20023;-69
2023/09/01 07:48:18;;;;;;;2.58;2.38;;;27.90;51.60;;;;;;5127200;27;20099;-68
2023/09/01 07:50:48;;;;;;;3.85;2.10;;;27.80;52.30;;;;;;5121776;27;20107;-68
2023/09/01 07:53:16;;;;;;;4.43;2.47;;;27.70;52.80;;;;;;5122488;27;20054;-68
2023/09/01 07:55:45;;;;;;;3.92;3.25;;;27.60;52.90;;;;;;5121146;27;20047;-68
2023/09/01 07:58:14;;;;;;;4.22;3.15;;;27.20;53.40;;;;;;5127266;27;20027;-66
2023/09/01 08:00:41;;;;;;;4.38;3.03;;;26.80;54.20;;;;;;5123481;28;20070;-68
2023/09/01 08:03:13;;;;;;;3.35;2.75;;;26.60;55.10;;;;;;5120497;28;20046;-66
2023/09/01 08:05:47;;;;;;;3.45;2.60;;;26.50;55.30;;;;;;5122677;27;20034;-68
2023/09/01 08:08:19;;;;;;;3.35;2.10;;;26.60;55.40;;;;;;5122016;28;20081;-68
2023/09/01 08:10:44;;;;;;;2.50;2.30;;;26.50;55.70;;;;;;5123225;28;20015;-70
2023/09/01 08:13:10;;;;;;;4.57;2.67;;;26.60;55.50;;;;;;5121462;27;20085;-69
2023/09/01 08:15:37;;;;;;;2.63;1.95;;;26.70;54.70;;;;;;5121112;27;20027;-67
2023/09/01 08:18:05;;;;;;;3.40;2.30;;;26.80;54.80;;;;;;5127991;28;20036;-68
2023/09/01 08:20:35;;;;;;;2.67;2.20;;;26.60;55.20;;;;;;5124342;28;20467;-68
2023/09/01 08:23:02;;;;;;;2.50;2.20;;;26.70;55.70;;;;;;5102247;28;20043;-68
2023/09/01 08:25:28;;;;;;;3.13;2.20;;;26.60;55.80;;;;;;5122556;28;20452;-69
2023/09/01 08:27:54;;;;;;;2.70;2.15;;;26.70;56.20;;;;;;5122929;28;20457;-66
2023/09/01 08:30:22;;;;;;;2.35;1.95;;;26.70;55.70;;;;;;5126042;27;20012;-65
2023/09/01 08:32:50;;;;;;;2.92;2.50;;;26.80;55.70;;;;;;5119400;28;20150;-66
2023/09/01 08:35:37;;;;;;;3.40;2.08;;;27.00;55.10;;;;;;5123475;27;20265;-68
2023/09/01 08:38:10;;;;;;;5.30;2.25;;;27.10;54.80;;;;;;5127159;28;20130;-67
2023/09/01 08:40:56;;;;;;;2.63;2.30;;;27.20;55.10;;;;;;5121702;28;20024;-64
2023/09/01 08:43:39;;;;;;;3.13;2.20;;;27.40;54.10;;;;;;5116910;28;20088;-64
2023/09/01 08:46:28;;;;;;;3.33;1.90;;;27.40;54.50;;;;;;5124379;28;20031;-62
2023/09/01 08:49:09;;;;;;;3.67;2.30;;;27.50;54.30;;;;;;5121711;28;20038;-65
2023/09/01 08:52:04;;;;;;;2.17;1.98;;;27.50;52.70;;;;;;5121895;27;20073;-66
2023/09/01 08:54:36;;;;;;;;;;;27.50;52.70;;;;;;5124256;27;20341;-66
2023/09/01 08:57:23;;;;;;;2.95;2.30;;;27.50;54.10;;;;;;5129580;27;19911;-65
2023/09/01 08:59:54;;;;;;;3.20;2.17;;;27.50;53.40;;;;;;5123976;27;20068;-69
2023/09/01 09:02:19;;;;;;;4.40;1.98;;;27.50;53.70;;;;;;5139511;27;20050;-69
2023/09/01 09:04:56;;;;;;;3.03;2.20;;;27.40;53.70;;;;;;5139768;27;20027;-67
2023/09/01 09:07:22;;;;;;;3.15;2.20;;;27.40;52.70;;;;;;5139253;27;20060;-67
2023/09/01 09:09:56;;;;;;;3.45;2.35;;;27.40;53.30;;;;;;5138186;27;20024;-67
2023/09/01 09:12:33;;;;;;;3.60;2.30;;;27.50;53.00;;;;;;5138116;27;20302;-69
2023/09/01 09:17:46;;;;;;;2.47;2.28;;;27.50;53.20;;;;;;5138595;27;20080;-69
2023/09/01 09:20:14;;;;;;;2.25;2.05;;;27.40;52.50;;;;;;5138435;27;20058;-69
2023/09/01 09:22:53;;;;;;;2.10;1.90;;;27.40;52.30;;;;;;5138343;27;20034;-68
2023/09/01 09:25:32;;;;;;;1.70;1.60;;;27.40;51.80;;;;;;5137315;27;20114;-69
2023/09/01 09:28:18;;;;;;;1.95;1.85;;;27.40;51.60;;;;;;5136020;27;20049;-69
2023/09/01 09:30:51;;;;;;;3.63;1.83;;;27.30;52.20;;;;;;5130554;27;20026;-71
2023/09/01 09:33:27;;;;;;;;;;;27.10;51.70;;;;;;5136040;27;20126;-68
2023/09/01 09:35:53;;;;;;;2.53;2.00;;;27.00;52.60;;;;;;5137716;27;19907;-68
2023/09/01 09:38:19;;;;;;;4.55;2.30;;;26.80;52.00;;;;;;5138157;27;20027;-68
2023/09/01 09:40:59;;;;;;;3.05;1.80;;;26.70;53.10;;;;;;5137771;27;20046;-69
2023/09/01 09:43:27;;;;;;;4.15;2.20;;;26.60;53.50;;;;;;5138025;27;20030;-68
2023/09/01 09:45:55;;;;;;;2.78;2.00;;;26.70;53.00;;;;;;5137649;27;20039;-68
2023/09/01 09:48:21;;;;;;;2.85;1.80;;;26.60;52.20;;;;;;5137375;27;20019;-68
2023/09/01 09:50:51;;;;;;;2.55;2.00;;;26.40;53.10;;;;;;5137005;27;20080;-68
2023/09/01 09:53:24;;;;;;;3.08;2.10;;;26.30;53.90;;;;;;5137199;27;20027;-68
2023/09/01 09:55:52;;;;;;;3.58;2.13;;;26.50;54.10;;;;;;5127143;27;20360;-68
2023/09/01 09:58:20;;;;;;;2.38;1.90;;;26.60;54.20;;;;;;5136642;27;20333;-67
2023/09/01 10:01:02;;;;;;;2.95;1.85;;;26.70;53.50;;;;;;5136186;27;20102;-68
2023/09/01 10:03:31;;;;;;;2.33;1.60;;;26.60;53.80;;;;;;5135122;27;20522;-66
2023/09/01 10:05:59;;;;;;;2.50;1.80;;;26.70;54.20;;;;;;5136646;27;20056;-67
2023/09/01 10:08:26;;;;;;;2.25;1.40;;;26.70;54.10;;;;;;5135848;27;20024;-68
2023/09/01 10:10:52;;;;;;;4.35;1.90;;;26.90;54.20;;;;;;5136831;27;20106;-68
2023/09/01 10:13:21;;;;;;;2.90;2.33;;;27.10;54.30;;;;;;5137059;27;20022;-68
2023/09/01 10:15:49;;;;;;;2.13;1.95;;;27.30;53.70;;;;;;5136736;27;20027;-68
2023/09/01 10:18:15;;;;;;;1.98;1.88;;;27.40;53.40;;;;;;5135099;27;20121;-68
2023/09/01 10:20:43;;;;;;;3.25;2.30;;;27.50;52.90;;;;;;5135783;27;20098;-68
2023/09/01 10:23:10;;;;;;;4.60;2.08;;;27.70;52.50;;;;;;5135718;27;20456;-68
2023/09/01 10:25:36;;;;;;;2.28;2.00;;;27.80;52.40;;;;;;5135737;27;20023;-68
2023/09/01 10:28:11;;;;;;;2.30;1.70;;;27.90;52.50;;;;;;5135713;27;20042;-69
2023/09/01 10:30:41;;;;;;;3.35;2.70;;;28.00;52.20;;;;;;5135650;27;20027;-67
2023/09/01 10:33:25;;;;;;;3.20;1.95;;;28.20;51.60;;;;;;5135709;27;20075;-67
2023/09/01 10:35:55;;;;;;;1.63;1.50;;;28.20;51.70;;;;;;5137927;27;20095;-67
2023/09/01 10:38:22;;;;;;;2.88;2.10;;;28.30;51.40;;;;;;5137838;27;20103;-68
2023/09/01 10:40:53;;;;;;;1.95;1.70;;;28.40;50.80;;;;;;5137792;27;20459;-68
2023/09/01 10:43:37;;;;;;;3.67;2.10;;;28.50;50.80;;;;;;5137377;27;20031;-67
2023/09/01 10:46:26;;;;;;;4.03;2.20;;;28.60;50.90;;;;;;5136308;27;20031;-67
2023/09/01 10:48:53;;;;;;;2.10;1.90;;;28.50;51.10;;;;;;5126840;27;20103;-68
2023/09/01 10:51:22;;;;;;;5.35;2.28;;;28.50;51.30;;;;;;5137631;27;20150;-67
2023/09/01 10:53:53;;;;;;;4.25;2.42;;;28.50;51.10;;;;;;5137747;27;20444;-67
2023/09/01 10:56:21;;;;;;;4.00;2.65;;;28.50;51.50;;;;;;5136632;27;20019;-66
2023/09/01 10:58:51;;;;;;;2.70;1.98;;;28.40;50.90;;;;;;5137258;27;20536;-67
2023/09/01 11:01:37;;;;;;;3.35;1.90;;;28.40;51.40;;;;;;5137109;27;20037;-67
2023/09/01 11:04:19;;;;;;;3.72;2.55;;;28.50;51.60;;;;;;5137212;27;20041;-67
2023/09/01 11:07:00;;;;;;;4.03;2.10;;;28.50;50.80;;;;;;5136991;27;20027;-66
2023/09/01 11:09:34;;;;;;;5.68;2.80;;;28.50;50.80;;;;;;5137514;27;20035;-68
2023/09/01 11:12:08;;;;;;;4.13;2.67;;;28.60;50.40;;;;;;5137527;27;20141;-67
2023/09/01 11:14:39;;;;;;;2.90;2.42;;;28.70;50.10;;;;;;5136674;27;20054;-68
2023/09/01 11:17:05;;;;;;;3.03;2.20;;;28.80;50.40;;;;;;5137212;27;20026;-68
2023/09/01 11:19:46;;;;;;;4.07;2.55;;;28.90;50.10;;;;;;5136813;27;20023;-67
2023/09/01 11:22:12;;;;;;;2.42;1.88;;;28.90;50.20;;;;;;5137326;27;20025;-66
2023/09/01 11:24:39;;;;;;;4.45;2.42;;;29.00;50.10;;;;;;5136585;27;20026;-68
2023/09/01 11:27:06;;;;;;;2.58;2.13;;;29.20;49.30;;;;;;5136626;27;20045;-68
2023/09/01 11:29:38;;;;;;;2.28;2.03;;;29.20;49.40;;;;;;5137227;27;20055;-67
2023/09/01 11:34:42;;;;;;;2.67;2.38;;;29.20;49.00;;;;;;5136404;27;20058;-67
2023/09/01 11:37:14;;;;;;;3.50;2.30;;;29.20;48.80;;;;;;5136558;27;20107;-67
2023/09/01 11:39:40;;;;;;;3.27;2.27;;;29.20;49.10;;;;;;5137100;27;20532;-67
2023/09/01 11:42:10;;;;;;;2.30;2.00;;;29.30;49.40;;;;;;5136752;27;20098;-67
2023/09/01 11:44:36;;;;;;;3.33;2.25;;;29.30;48.80;;;;;;5136195;27;20063;-67
2023/09/01 11:49:30;;;;;;;3.10;2.47;;;29.40;48.80;;;;;;5136921;27;20121;-68
2023/09/01 11:52:00;;;;;;;2.83;2.60;;;29.40;48.20;;;;;;5136356;27;20025;-66
2023/09/01 11:54:49;;;;;;;3.45;2.40;;;29.30;48.00;;;;;;5135292;27;20463;-67
2023/09/01 11:57:15;;;;;;;4.22;2.50;;;29.10;48.30;;;;;;5136850;27;20370;-67
2023/09/01 11:59:48;;;;;;;2.85;2.30;;;29.10;49.00;;;;;;5136096;27;20099;-67
2023/09/01 12:02:20;;;;;;;3.05;2.42;;;29.20;49.30;;;;;;5136266;27;20020;-66
2023/09/01 12:04:47;;;;;;;4.50;2.58;;;29.30;49.00;;;;;;5136737;27;20425;-66
2023/09/01 12:07:28;;;;;;;4.97;2.45;;;29.20;48.90;;;;;;5136182;27;20012;-66
2023/09/01 12:09:55;;;;;;;2.83;2.25;;;29.30;48.70;;;;;;5136391;27;20028;-67
2023/09/01 12:12:41;;;;;;;2.33;2.13;;;29.30;49.00;;;;;;5136356;27;20016;-67
2023/09/01 12:15:10;;;;;;;4.35;2.45;;;29.30;49.40;;;;;;5135077;28;20136;-68
2023/09/01 12:17:38;;;;;;;2.38;2.08;;;29.50;49.10;;;;;;5136661;27;20111;-67
2023/09/01 12:20:06;;;;;;;2.45;2.25;;;29.50;49.00;;;;;;5136077;27;20031;-67
2023/09/01 12:22:32;;;;;;;3.22;2.30;;;29.50;48.30;;;;;;5135936;27;20100;-66
2023/09/01 12:25:02;;;;;;;3.38;2.33;;;29.50;48.10;;;;;;5136029;27;20069;-67
2023/09/01 12:27:31;;;;;;;2.85;2.58;;;29.50;48.00;;;;;;5140705;27;20332;-67
2023/09/01 12:30:00;;;;;;;5.25;2.50;;;29.50;47.60;;;;;;5140693;27;20160;-67
2023/09/01 12:32:28;;;;;;;5.07;2.63;;;29.40;48.00;;;;;;5140230;27;20059;-67
2023/09/01 12:35:01;;;;;;;4.53;2.30;;;29.30;48.10;;;;;;5139756;27;20032;-67
2023/09/01 12:37:26;;;;;;;;;;;29.30;48.00;;;;;;5140497;27;20023;-67
2023/09/01 12:39:52;;;;;;;3.75;2.45;;;29.20;47.80;;;;;;5140486;27;19952;-67
2023/09/01 12:42:20;;;;;;;4.82;2.85;;;29.10;48.30;;;;;;5139889;27;20023;-67
2023/09/01 12:44:48;;;;;;;3.05;2.50;;;29.10;48.50;;;;;;5140289;27;20031;-67
2023/09/01 12:47:14;;;;;;;4.22;2.70;;;29.20;48.60;;;;;;5140372;27;20102;-65
2023/09/01 12:49:48;;;;;;;4.53;2.50;;;29.30;48.90;;;;;;5140346;27;20090;-67
2023/09/01 12:52:15;;;;;;;3.90;2.75;;;29.30;49.30;;;;;;5139693;27;20034;-66
2023/09/01 12:54:41;;;;;;;4.55;2.67;;;29.40;48.50;;;;;;5138572;27;20011;-67
2023/09/01 12:57:08;;;;;;;3.70;2.83;;;29.30;48.90;;;;;;5139606;27;20038;-67
2023/09/01 12:59:36;;;;;;;4.03;2.60;;;29.40;48.80;;;;;;5139519;27;20318;-66
2023/09/01 13:02:02;;;;;;;3.97;2.20;;;29.40;48.80;;;;;;5139990;27;20359;-67
2023/09/01 13:04:31;;;;;;;3.63;2.40;;;29.50;48.60;;;;;;5138476;27;20020;-64
2023/09/01 13:06:58;;;;;;;4.57;2.63;;;29.50;48.70;;;;;;5139904;27;20023;-65
2023/09/01 13:09:24;;;;;;;4.60;2.60;;;29.60;48.80;;;;;;5139610;27;20310;-64
2023/09/01 13:11:50;;;;;;;4.47;2.40;;;29.70;48.90;;;;;;5139354;27;20030;-64
2023/09/01 13:14:16;;;;;;;3.55;2.40;;;29.80;49.00;;;;;;5139235;27;20019;-65
2023/09/01 13:19:10;;;;;;;3.70;2.22;;;29.90;48.80;;;;;;5139962;27;20031;-66
2023/09/01 13:21:36;;;;;;;3.58;2.40;;;29.90;48.90;;;;;;5139149;27;20026;-71
2023/09/01 13:24:03;;;;;;;4.18;3.00;;;29.90;48.70;;;;;;5139033;27;20015;-69
2023/09/01 13:26:29;;;;;;;4.18;2.70;;;29.90;48.10;;;;;;5137970;27;20027;-69
2023/09/01 13:28:55;;;;;;;2.50;2.30;;;29.70;48.20;;;;;;5139534;27;20023;-69
2023/09/01 13:31:22;;;;;;;2.90;2.25;;;29.70;48.60;;;;;;5139494;27;20035;-69
2023/09/01 13:33:48;;;;;;;5.03;2.47;;;29.60;48.80;;;;;;5138643;27;20047;-69
2023/09/01 13:36:14;;;;;;;3.75;2.63;;;29.60;48.70;;;;;;5139076;27;20031;-69
2023/09/01 13:38:40;;;;;;;3.17;2.42;;;29.60;48.60;;;;;;5137839;27;20076;-70
2023/09/01 13:41:07;;;;;;;4.07;2.97;;;29.50;48.60;;;;;;5139033;27;20055;-70
2023/09/01 13:43:34;;;;;;;3.65;2.30;;;29.40;48.50;;;;;;5137626;27;20352;-70
2023/09/01 13:46:22;;;;;;;3.40;2.38;;;29.30;49.00;;;;;;5139038;27;20027;-70
2023/09/01 13:48:59;;;;;;;3.83;2.67;;;29.20;49.10;;;;;;5138684;27;20015;-68
2023/09/01 13:51:28;;;;;;;4.07;2.55;;;29.30;49.40;;;;;;5138911;27;20051;-68
2023/09/01 13:53:56;;;;;;;2.80;2.40;;;29.40;49.60;;;;;;5138697;27;20027;-69
2023/09/01 13:56:22;;;;;;;2.72;2.30;;;29.40;49.60;;;;;;5138465;27;20425;-69
2023/09/01 13:58:48;;;;;;;3.97;2.47;;;29.40;49.50;;;;;;5128581;27;20063;-69
2023/09/01 14:01:15;;;;;;;3.08;2.22;;;29.40;49.50;;;;;;5117839;28;20020;-68